Yellowstone National Park, Wyoming
Current Conditions -  °F | °C
As of 9:56 PM on Friday 19 Dec 2014 (Local Time) from KDIJ Reporting Station
Overcast Overcast  
Wind Chill: 24°   Ceiling: 2600
Heat Index: 31°   Visibility: 10mi
Dew Point: 27°   Wind: 8mph
Humidity: 85%   Direction: 180°S
Pressure: 30.07"   Gusts: NA
Location:  44.5747°N, 110.518°W
Report Text: KDIJ 200456Z AUTO 18007KT 10SM OVC026 M01/M03 A3007 RMK AO2 T10051027 UPB15E34 P0000 SLP179
Loading
Personal Weather Stations






























Interactive Weather Map New forecast layout! Learn more

10-Day Weather Forecast

Advertisements
Track Severe Weather on mobile